Time;durP1;ratioP1;P1;durP2;ratioP2;P2;SDS_P1;SDS_P2;PMS_P1;PMS_P2;Temp;Humidity;BMP_temperature;BMP_pressure;BME280_temperature;BME280_humidity;BME280_pressure;Samples;Min_cycle;Max_cycle;Signal;HPM_P1;HPM_P2
2022/02/07 00:00:45;;;;;;;;;;;10.90;99.90;;;;;;5053403;28;20369;-80
2022/02/07 00:05:55;;;;;;;;;;;10.90;99.90;;;;;;5053369;28;19916;-79
2022/02/07 00:08:21;;;;;;;;;;;10.90;99.90;;;;;;5053089;28;19913;-79
2022/02/07 00:10:47;;;;;;;;;;;10.90;99.90;;;;;;5053003;28;19909;-80
2022/02/07 00:13:12;;;;;;;;;;;10.80;99.90;;;;;;5053073;28;19908;-79
2022/02/07 00:15:38;;;;;;;;;;;10.80;99.90;;;;;;5052844;28;19921;-79
2022/02/07 00:18:04;;;;;;;;;;;10.80;99.90;;;;;;5052866;28;19963;-79
2022/02/07 00:20:30;;;;;;;;;;;10.80;99.90;;;;;;5053096;28;19909;-79
2022/02/07 00:22:56;;;;;;;;;;;10.90;99.90;;;;;;5034981;28;19909;-79
2022/02/07 00:25:22;;;;;;;;;;;10.80;99.90;;;;;;5052932;28;19908;-79
2022/02/07 00:27:47;;;;;;;;;;;10.80;99.90;;;;;;5052906;28;20362;-80
2022/02/07 00:30:15;;;;;;;;;;;10.70;99.90;;;;;;5053126;28;19935;-80
2022/02/07 00:32:40;;;;;;;;;;;10.70;99.90;;;;;;5034995;28;19913;-80
2022/02/07 00:35:11;;;;;;;;;;;10.80;99.90;;;;;;5052827;28;19971;-80
2022/02/07 00:37:38;;;;;;;;;;;10.70;99.90;;;;;;5034665;28;19913;-79
2022/02/07 00:42:59;;;;;;;;;;;10.70;99.90;;;;;;5053144;28;19909;-79
2022/02/07 00:45:39;;;;;;;;;;;10.70;99.90;;;;;;5034621;28;19913;-79
2022/02/07 00:48:06;;;;;;;;;;;10.60;99.90;;;;;;5034539;28;20385;-80
2022/02/07 00:50:32;;;;;;;;;;;10.60;99.90;;;;;;5052895;28;19951;-79
2022/02/07 00:52:58;;;;;;;;;;;10.70;99.90;;;;;;5052624;28;19909;-80
2022/02/07 00:55:24;;;;;;;;;;;10.80;99.90;;;;;;5055179;28;19932;-80
2022/02/07 00:57:49;;;;;;;;;;;10.80;99.90;;;;;;5056131;28;19920;-80
2022/02/07 01:00:15;;;;;;;;;;;10.70;99.90;;;;;;5056181;28;19995;-80
2022/02/07 01:02:41;;;;;;;;;;;10.80;99.90;;;;;;5056272;28;19920;-79
2022/02/07 01:05:07;;;;;;;;;;;10.80;99.90;;;;;;5056365;28;19917;-79
2022/02/07 01:07:33;;;;;;;;;;;10.80;99.90;;;;;;5055958;28;20365;-79
2022/02/07 01:09:59;;;;;;;;;;;10.80;99.90;;;;;;5056035;28;19909;-79
2022/02/07 01:15:01;;;;;;;;;;;10.80;99.90;;;;;;5056202;28;19913;-79
2022/02/07 01:47:42;;;;;;;;;;;10.70;99.90;;;;;;5035166;28;20332;-79
2022/02/07 01:55:51;;;;;;;;;;;10.60;99.90;;;;;;4974460;28;19960;-79
2022/02/07 01:58:17;;;;;;;;;;;10.70;99.90;;;;;;4973972;28;20045;-79
2022/02/07 02:00:43;;;;;;;;;;;10.60;99.90;;;;;;5004675;28;20383;-80
2022/02/07 02:03:09;;;;;;;;;;;10.60;99.90;;;;;;5035292;28;19935;-80
2022/02/07 02:05:37;;;;;;;;;;;10.60;99.90;;;;;;5017001;28;20373;-79
2022/02/07 02:08:10;;;;;;;;;;;10.50;99.90;;;;;;5034903;28;19972;-80
2022/02/07 02:10:39;;;;;;;;;;;10.40;99.90;;;;;;5034886;28;19909;-81
2022/02/07 02:13:14;;;;;;;;;;;10.40;99.90;;;;;;5017127;28;19917;-79
2022/02/07 02:47:55;;;;;;;;;;;10.20;99.90;;;;;;5054082;28;19962;-79
2022/02/07 02:50:29;;;;;;;;;;;10.30;99.90;;;;;;5036197;28;19909;-79
2022/02/07 02:52:56;;;;;;;;;;;10.40;99.90;;;;;;5035948;28;20004;-80
2022/02/07 02:55:21;;;;;;;;;;;10.30;99.90;;;;;;5054068;28;20467;-81
2022/02/07 02:57:47;;;;;;;;;;;10.30;99.90;;;;;;5053884;28;19921;-79
2022/02/07 03:00:13;;;;;;;;;;;10.30;99.90;;;;;;5054160;28;19909;-80
2022/02/07 03:02:38;;;;;;;;;;;10.30;99.90;;;;;;5053899;28;19977;-80
2022/02/07 03:05:04;;;;;;;;;;;10.30;99.90;;;;;;5053845;28;19917;-79
2022/02/07 03:07:30;;;;;;;;;;;10.20;99.90;;;;;;5053792;28;19909;-78
2022/02/07 03:09:58;;;;;;;;;;;10.10;99.90;;;;;;5053752;28;19909;-80
2022/02/07 03:12:24;;;;;;;;;;;10.20;99.90;;;;;;5053966;28;20294;-80
2022/02/07 03:14:50;;;;;;;;;;;10.20;99.90;;;;;;5053642;28;19909;-81
2022/02/07 03:17:16;;;;;;;;;;;10.20;99.90;;;;;;5031163;28;19945;-80
2022/02/07 03:19:42;;;;;;;;;;;10.10;99.90;;;;;;5033715;28;19917;-79
2022/02/07 03:22:07;;;;;;;;;;;10.10;99.90;;;;;;5033666;28;19996;-80
2022/02/07 03:24:34;;;;;;;;;;;10.30;99.90;;;;;;5033674;28;19917;-79
2022/02/07 03:26:59;;;;;;;;;;;10.30;99.90;;;;;;5033560;28;19909;-79
2022/02/07 03:29:25;;;;;;;;;;;10.20;99.90;;;;;;5033556;28;19916;-80
2022/02/07 03:31:51;;;;;;;;;;;10.20;99.90;;;;;;5033704;28;19967;-81
2022/02/07 03:34:16;;;;;;;;;;;10.20;99.90;;;;;;5033523;28;19996;-79
2022/02/07 03:36:42;;;;;;;;;;;10.30;99.90;;;;;;5033573;28;19913;-80
2022/02/07 03:39:08;;;;;;;;;;;10.30;99.90;;;;;;5032163;28;19910;-79
2022/02/07 03:41:36;;;;;;;;;;;10.30;99.90;;;;;;5033487;28;19963;-79
2022/02/07 03:44:02;;;;;;;;;;;10.30;99.90;;;;;;5033553;28;19924;-80
2022/02/07 03:46:28;;;;;;;;;;;10.30;99.90;;;;;;5032156;28;19909;-80
2022/02/07 03:48:53;;;;;;;;;;;10.30;99.90;;;;;;5033380;28;20282;-80
2022/02/07 03:51:19;;;;;;;;;;;10.30;99.90;;;;;;5033568;28;19909;-81
2022/02/07 03:53:45;;;;;;;;;;;10.40;99.90;;;;;;5033280;28;19995;-79
2022/02/07 03:56:10;;;;;;;;;;;10.30;99.90;;;;;;5033340;28;19917;-79
2022/02/07 03:58:36;;;;;;;;;;;10.10;99.90;;;;;;5033298;28;19921;-79
2022/02/07 04:01:02;;;;;;;;;;;10.20;99.90;;;;;;5033251;28;19909;-79
2022/02/07 04:03:30;;;;;;;;;;;10.30;99.90;;;;;;5033622;28;19909;-80
2022/02/07 04:05:59;;;;;;;;;;;10.40;99.90;;;;;;5033196;28;19909;-80
2022/02/07 04:08:41;;;;;;;;;;;10.20;99.90;;;;;;5033190;28;19913;-80
2022/02/07 04:11:16;;;;;;;;;;;10.20;99.90;;;;;;5033291;28;20000;-79
2022/02/07 04:13:48;;;;;;;;;;;10.30;99.90;;;;;;5033429;28;20444;-79
2022/02/07 04:16:14;;;;;;;;;;;10.40;99.90;;;;;;5031439;28;20007;-79
2022/02/07 04:18:56;;;;;;;;;;;10.30;99.90;;;;;;5033178;28;19944;-79
2022/02/07 04:21:22;;;;;;;;;;;10.30;99.90;;;;;;5033201;28;20373;-80
2022/02/07 04:23:48;;;;;;;;;;;10.00;99.90;;;;;;5033092;28;19917;-80
2022/02/07 04:26:13;;;;;;;;;;;10.20;99.90;;;;;;5033201;28;19913;-80
2022/02/07 04:28:39;;;;;;;;;;;10.30;99.90;;;;;;5034657;28;19909;-79
2022/02/07 04:31:04;;;;;;;;;;;10.20;99.90;;;;;;5036409;28;19909;-80
2022/02/07 04:33:30;;;;;;;;;;;10.20;99.90;;;;;;5036851;28;19909;-79
2022/02/07 04:35:56;;;;;;;;;;;10.30;99.90;;;;;;5036616;28;19911;-79
2022/02/07 04:38:21;;;;;;;;;;;10.40;99.90;;;;;;5035322;28;19913;-80
2022/02/07 04:40:47;;;;;;;;;;;10.30;99.90;;;;;;5036631;28;19956;-79
2022/02/07 04:43:15;;;;;;;;;;;10.20;99.90;;;;;;5036664;28;19909;-79
2022/02/07 04:46:03;;;;;;;;;;;10.20;99.90;;;;;;5036472;28;20425;-79
2022/02/07 04:58:56;;;;;;;;;;;10.20;99.90;;;;;;5036007;28;19971;-79
2022/02/07 05:01:32;;;;;;;;;;;10.20;99.90;;;;;;5034731;28;20050;-79
2022/02/07 05:04:11;;;;;;;;;;;10.20;99.90;;;;;;5034602;28;20374;-79
2022/02/07 05:14:51;;;;;;;;;;;10.20;99.90;;;;;;5035981;28;19964;-79
2022/02/07 05:17:19;;;;;;;;;;;10.10;99.90;;;;;;5054023;28;19925;-80
2022/02/07 05:19:45;;;;;;;;;;;10.10;99.90;;;;;;5055853;28;19909;-79
2022/02/07 05:22:10;;;;;;;;;;;10.20;99.90;;;;;;5055753;28;19913;-81
2022/02/07 05:24:36;;;;;;;;;;;10.10;99.90;;;;;;5037867;28;19909;-79
2022/02/07 05:27:02;;;;;;;;;;;10.10;99.90;;;;;;5055664;28;19909;-80
2022/02/07 05:29:27;;;;;;;;;;;10.20;99.90;;;;;;5037779;28;19908;-79
2022/02/07 05:31:53;;;;;;;;;;;10.10;99.90;;;;;;5055534;28;20320;-80
2022/02/07 05:34:19;;;;;;;;;;;10.30;99.90;;;;;;5055545;28;20003;-80
2022/02/07 05:36:46;;;;;;;;;;;10.30;99.90;;;;;;5055511;28;20373;-79
2022/02/07 05:39:18;;;;;;;;;;;10.30;99.90;;;;;;5037342;28;19913;-79
2022/02/07 05:41:44;;;;;;;;;;;10.30;99.90;;;;;;5036740;28;19954;-80
2022/02/07 05:44:12;;;;;;;;;;;10.40;99.90;;;;;;5037459;28;19909;-79
2022/02/07 05:46:38;;;;;;;;;;;10.30;99.90;;;;;;5055343;28;20288;-79
2022/02/07 05:49:03;;;;;;;;;;;10.30;99.90;;;;;;5055204;28;19996;-79
2022/02/07 05:51:29;;;;;;;;;;;10.10;99.90;;;;;;5055199;28;19909;-80
2022/02/07 05:53:55;;;;;;;;;;;10.10;99.90;;;;;;5055049;28;20392;-81
2022/02/07 05:56:20;;;;;;;;;;;10.20;99.90;;;;;;5055053;28;19928;-80
2022/02/07 05:58:46;;;;;;;;;;;10.10;99.90;;;;;;5055169;28;20404;-80
2022/02/07 06:01:12;;;;;;;;;;;10.10;99.90;;;;;;5055018;28;20289;-79
2022/02/07 06:03:37;;;;;;;;;;;10.10;99.90;;;;;;5037050;28;19908;-79
2022/02/07 06:06:03;;;;;;;;;;;9.90;99.90;;;;;;5055171;28;19990;-80
2022/02/07 06:08:31;;;;;;;;;;;9.90;99.90;;;;;;5054936;28;20377;-80
2022/02/07 06:10:57;;;;;;;;;;;9.70;99.90;;;;;;5036981;28;19931;-79
2022/02/07 06:13:23;;;;;;;;;;;9.60;99.90;;;;;;5054806;28;19954;-79
2022/02/07 06:15:49;;;;;;;;;;;9.40;99.90;;;;;;5054512;28;20324;-80
2022/02/07 06:18:17;;;;;;;;;;;9.30;99.90;;;;;;5054611;28;19913;-80
2022/02/07 06:20:43;;;;;;;;;;;9.30;99.90;;;;;;5054618;28;19908;-79
2022/02/07 06:23:08;;;;;;;;;;;9.30;99.90;;;;;;5054709;28;20419;-79
2022/02/07 06:25:34;;;;;;;;;;;9.50;99.90;;;;;;5054677;28;19908;-80
2022/02/07 06:27:59;;;;;;;;;;;9.50;99.90;;;;;;5036528;28;19960;-79
2022/02/07 06:30:25;;;;;;;;;;;9.60;99.90;;;;;;5054759;28;19915;-80
2022/02/07 06:32:50;;;;;;;;;;;9.60;99.90;;;;;;5054605;28;19962;-80
2022/02/07 06:35:17;;;;;;;;;;;9.40;99.90;;;;;;5054467;28;20369;-79
2022/02/07 06:37:42;;;;;;;;;;;9.20;99.90;;;;;;5054369;28;19919;-79
2022/02/07 06:40:08;;;;;;;;;;;9.00;99.90;;;;;;5036412;28;19913;-80
2022/02/07 06:42:34;;;;;;;;;;;8.90;99.90;;;;;;5054472;28;19923;-80
2022/02/07 06:44:59;;;;;;;;;;;8.80;99.90;;;;;;5036359;28;19908;-79
2022/02/07 06:47:25;;;;;;;;;;;8.70;99.90;;;;;;5054154;28;20007;-79
2022/02/07 06:49:51;;;;;;;;;;;8.60;99.90;;;;;;5054152;28;20101;-79
2022/02/07 06:52:16;;;;;;;;;;;8.50;99.90;;;;;;5053960;28;19909;-79
2022/02/07 06:54:42;;;;;;;;;;;8.50;99.90;;;;;;5054264;28;19909;-80
2022/02/07 06:57:08;;;;;;;;;;;8.80;99.90;;;;;;5053951;28;19912;-80
2022/02/07 06:59:39;;;;;;;;;;;8.80;99.90;;;;;;5053968;28;19908;-79
2022/02/07 07:02:05;;;;;;;;;;;8.70;99.90;;;;;;5035765;28;19909;-80
2022/02/07 07:04:31;;;;;;;;;;;8.70;99.90;;;;;;5054330;28;19917;-79
2022/02/07 07:06:56;;;;;;;;;;;8.60;99.90;;;;;;5054142;28;19916;-80
2022/02/07 07:09:22;;;;;;;;;;;8.40;99.90;;;;;;5053677;28;19909;-79
2022/02/07 07:11:48;;;;;;;;;;;8.50;99.90;;;;;;5053764;28;20046;-79
2022/02/07 07:14:28;;;;;;;;;;;8.60;99.90;;;;;;5053667;28;19916;-80
2022/02/07 07:16:55;;;;;;;;;;;8.60;99.90;;;;;;5031923;28;19921;-80
2022/02/07 07:19:20;;;;;;;;;;;8.40;99.90;;;;;;5032420;28;19917;-80
2022/02/07 07:21:47;;;;;;;;;;;8.50;99.90;;;;;;5033769;28;19955;-79
2022/02/07 07:24:13;;;;;;;;;;;8.50;99.90;;;;;;5033607;28;19909;-80
2022/02/07 07:26:39;;;;;;;;;;;8.40;99.90;;;;;;5033763;28;19909;-79
2022/02/07 07:29:10;;;;;;;;;;;8.40;99.90;;;;;;5033782;28;19909;-80
2022/02/07 07:31:42;;;;;;;;;;;8.60;99.90;;;;;;5032030;28;20369;-80
2022/02/07 07:34:08;;;;;;;;;;;8.50;99.90;;;;;;5032041;28;19939;-79
2022/02/07 07:36:33;;;;;;;;;;;8.40;99.90;;;;;;5033799;28;19913;-79
2022/02/07 07:38:59;;;;;;;;;;;8.40;99.90;;;;;;5033507;28;20289;-79
2022/02/07 07:41:26;;;;;;;;;;;8.50;99.90;;;;;;5033682;28;19948;-79
2022/02/07 07:43:52;;;;;;;;;;;8.50;99.90;;;;;;5032198;28;20365;-80
2022/02/07 07:46:23;;;;;;;;;;;8.40;99.90;;;;;;5033384;28;19917;-79
2022/02/07 07:48:57;;;;;;;;;;;8.40;99.90;;;;;;5031817;28;20391;-79
2022/02/07 07:51:34;;;;;;;;;;;8.30;99.90;;;;;;5033990;28;20409;-79
2022/02/07 07:54:21;;;;;;;;;;;8.30;99.90;;;;;;5031878;28;19913;-79
2022/02/07 08:02:18;;;;;;;;;;;9.60;99.90;;;;;;5033014;28;19916;-80
2022/02/07 08:04:46;;;;;;;;;;;10.00;99.90;;;;;;5036616;28;19909;-79
2022/02/07 08:07:24;;;;;;;;;;;10.50;99.90;;;;;;5037527;28;19920;-80
2022/02/07 08:12:29;;;;;;;;;;;11.40;99.90;;;;;;5036947;28;20316;-79
2022/02/07 08:14:55;;;;;;;;;;;11.50;99.90;;;;;;5037456;28;20361;-80
2022/02/07 08:17:22;;;;;;;;;;;12.10;99.90;;;;;;5053700;28;19925;-80
2022/02/07 08:19:48;;;;;;;;;;;13.10;99.90;;;;;;5056974;28;20376;-80
2022/02/07 08:22:13;;;;;;;;;;;13.10;99.90;;;;;;5056964;28;19909;-80
2022/02/07 08:24:40;;;;;;;;;;;13.80;99.90;;;;;;5057030;28;19908;-79
2022/02/07 08:27:06;;;;;;;;;;;13.90;99.90;;;;;;5038913;28;19915;-80
2022/02/07 08:29:31;;;;;;;;;;;14.00;99.90;;;;;;5056765;28;20381;-80
2022/02/07 08:31:57;;;;;;;;;;;14.50;99.90;;;;;;5057173;28;19908;-80
2022/02/07 08:34:23;;;;;;;;;;;14.20;99.90;;;;;;5056918;28;19908;-81
2022/02/07 08:36:48;;;;;;;;;;;13.90;99.90;;;;;;5038654;28;19913;-79
2022/02/07 08:39:14;;;;;;;;;;;13.50;99.90;;;;;;5056645;28;19909;-80
2022/02/07 08:41:40;;;;;;;;;;;13.90;99.90;;;;;;5056577;28;19909;-79
2022/02/07 08:44:06;;;;;;;;;;;14.30;99.90;;;;;;5038627;28;19909;-80
2022/02/07 08:46:32;;;;;;;;;;;14.50;99.90;;;;;;5056862;28;19920;-80
2022/02/07 08:48:59;;;;;;;;;;;14.50;99.90;;;;;;5056414;28;19909;-79
2022/02/07 08:51:24;;;;;;;;;;;14.40;99.90;;;;;;5056577;28;20284;-79
2022/02/07 08:53:51;;;;;;;;;;;14.30;99.90;;;;;;5056282;28;19908;-80
2022/02/07 08:56:19;;;;;;;;;;;14.40;99.90;;;;;;5056189;28;19962;-80
2022/02/07 08:58:47;;;;;;;;;;;14.60;99.90;;;;;;5056449;28;19996;-80
2022/02/07 09:01:19;;;;;;;;;;;14.10;99.90;;;;;;5056307;28;19908;-80
2022/02/07 09:04:10;;;;;;;;;;;13.70;99.90;;;;;;5038009;28;19909;-80
2022/02/07 09:06:38;;;;;;;;;;;13.20;99.90;;;;;;5055875;28;19909;-80
2022/02/07 09:09:17;;;;;;;;;;;13.20;99.90;;;;;;5037872;28;20377;-80
2022/02/07 09:11:43;;;;;;;;;;;13.70;99.90;;;;;;5055816;28;19959;-80
2022/02/07 09:14:11;;;;;;;;;;;13.40;99.90;;;;;;5055447;28;19912;-80
2022/02/07 09:16:38;;;;;;;;;;;13.50;99.90;;;;;;5054922;28;20269;-80
2022/02/07 09:19:04;;;;;;;;;;;13.90;99.90;;;;;;5055935;28;20365;-79
2022/02/07 09:21:30;;;;;;;;;;;14.00;99.90;;;;;;5055943;28;19963;-80
2022/02/07 09:23:56;;;;;;;;;;;14.10;99.90;;;;;;5055743;28;19936;-80
2022/02/07 09:26:22;;;;;;;;;;;14.20;99.90;;;;;;5055681;28;20304;-80
2022/02/07 09:28:48;;;;;;;;;;;14.30;99.90;;;;;;5056002;28;20322;-80
2022/02/07 09:31:14;;;;;;;;;;;14.00;99.90;;;;;;5055584;28;19987;-80
2022/02/07 09:33:41;;;;;;;;;;;13.80;99.90;;;;;;5055625;28;19915;-80
2022/02/07 09:36:07;;;;;;;;;;;13.60;99.90;;;;;;5055475;28;20288;-80
2022/02/07 09:38:33;;;;;;;;;;;13.40;99.90;;;;;;5055811;28;20446;-80
2022/02/07 09:40:59;;;;;;;;;;;13.00;99.90;;;;;;5055555;28;19916;-80
2022/02/07 09:43:30;;;;;;;;;;;13.40;99.90;;;;;;5055439;28;19915;-80
2022/02/07 09:46:06;;;;;;;;;;;13.70;99.90;;;;;;5037261;28;20400;-80
2022/02/07 09:48:38;;;;;;;;;;;13.60;99.90;;;;;;5037218;28;19956;-79
2022/02/07 09:51:04;;;;;;;;;;;13.60;99.90;;;;;;5037325;28;19956;-80
2022/02/07 09:53:30;;;;;;;;;;;13.50;99.90;;;;;;5055208;28;19909;-81
2022/02/07 09:55:58;;;;;;;;;;;13.60;99.90;;;;;;5055161;28;19913;-79
2022/02/07 09:58:24;;;;;;;;;;;13.70;99.90;;;;;;5055059;28;19944;-80
2022/02/07 10:00:49;;;;;;;;;;;13.90;99.90;;;;;;5055095;28;20433;-79
2022/02/07 10:03:24;;;;;;;;;;;14.30;99.90;;;;;;5055065;28;20007;-79
2022/02/07 10:05:57;;;;;;;;;;;14.40;99.90;;;;;;5036845;28;19909;-79
2022/02/07 10:14:07;;;;;;;;;;;14.10;99.90;;;;;;5055486;28;19909;-80
2022/02/07 10:16:45;;;;;;;;;;;14.30;99.90;;;;;;5033228;28;19921;-79
2022/02/07 10:36:07;;;;;;;;;;;16.50;99.90;;;;;;5034254;28;20054;-80
2022/02/07 10:38:47;;;;;;;;;;;16.60;99.90;;;;;;5034104;28;20063;-80
2022/02/07 10:41:38;;;;;;;;;;;16.60;99.90;;;;;;5034610;28;19909;-81
2022/02/07 10:44:30;;;;;;;;;;;16.30;99.90;;;;;;5032812;28;20317;-80
2022/02/07 10:46:56;;;;;;;;;;;16.70;99.90;;;;;;5032800;28;19909;-80
2022/02/07 10:49:21;;;;;;;;;;;16.80;99.90;;;;;;5034621;28;20461;-81
2022/02/07 10:51:56;;;;;;;;;;;17.70;99.90;;;;;;5034221;28;19932;-81
2022/02/07 10:54:22;;;;;;;;;;;17.30;99.90;;;;;;5034156;28;20008;-81
2022/02/07 10:56:50;;;;;;;;;;;16.60;99.90;;;;;;5034081;28;19967;-80
2022/02/07 10:59:18;;;;;;;;;;;16.90;99.90;;;;;;5034075;28;20003;-80
2022/02/07 11:04:19;;;;;;;;;;;18.60;98.90;;;;;;5033952;28;19916;-81
2022/02/07 11:06:48;;;;;;;;;;;19.50;97.80;;;;;;5032652;28;19909;-80
2022/02/07 11:17:24;;;;;;;;;;;21.90;90.60;;;;;;5046856;28;19970;-80
2022/02/07 11:27:33;;;;;;;;;;;19.30;90.90;;;;;;5053825;28;19913;-79
2022/02/07 11:29:59;;;;;;;;;;;18.10;92.70;;;;;;5053524;28;19955;-81
2022/02/07 11:32:54;;;;;;;;;;;17.80;94.80;;;;;;5053576;28;19908;-80
2022/02/07 11:35:21;;;;;;;;;;;17.40;94.70;;;;;;5051280;28;19959;-81
2022/02/07 11:38:02;;;;;;;;;;;17.30;94.40;;;;;;5052651;28;19916;-79
2022/02/07 11:40:35;;;;;;;;;;;16.80;95.20;;;;;;5053371;28;19917;-79
2022/02/07 11:43:04;;;;;;;;;;;16.60;95.30;;;;;;5053370;28;20480;-81
2022/02/07 11:45:46;;;;;;;;;;;16.70;96.50;;;;;;5053506;28;20376;-79
2022/02/07 11:48:12;;;;;;;;;;;16.70;95.80;;;;;;5053390;28;19913;-79
2022/02/07 11:50:40;;;;;;;;;;;16.50;96.20;;;;;;5035328;28;19915;-81
2022/02/07 11:53:07;;;;;;;;;;;16.20;97.10;;;;;;5053573;28;19908;-80
2022/02/07 11:55:40;;;;;;;;;;;16.10;97.20;;;;;;5053377;28;19913;-80
2022/02/07 11:58:15;;;;;;;;;;;16.50;96.80;;;;;;5053260;28;19962;-80
2022/02/07 12:00:50;;;;;;;;;;;16.30;96.80;;;;;;5053690;28;19909;-80
2022/02/07 12:03:16;;;;;;;;;;;16.50;96.30;;;;;;5053541;28;19962;-80
2022/02/07 12:05:44;;;;;;;;;;;16.60;96.10;;;;;;5053210;28;19995;-79
2022/02/07 12:08:20;;;;;;;;;;;16.60;96.20;;;;;;5053152;28;19916;-79
2022/02/07 12:10:47;;;;;;;;;;;16.70;97.30;;;;;;5053142;28;19909;-80
2022/02/07 12:13:31;;;;;;;;;;;16.90;97.00;;;;;;5053066;28;19909;-79
2022/02/07 12:15:59;;;;;;;;;;;17.20;96.80;;;;;;5052921;28;19917;-80
2022/02/07 12:18:25;;;;;;;;;;;17.30;96.30;;;;;;5053397;28;20006;-80
2022/02/07 12:20:55;;;;;;;;;;;17.60;94.90;;;;;;5053012;28;19909;-81
2022/02/07 12:23:31;;;;;;;;;;;17.60;94.70;;;;;;5053237;28;19909;-80
2022/02/07 12:26:04;;;;;;;;;;;17.00;93.70;;;;;;5035127;28;19959;-79
2022/02/07 12:28:45;;;;;;;;;;;16.30;93.90;;;;;;5053189;28;19940;-79
2022/02/07 12:33:53;;;;;;;;;;;16.60;94.70;;;;;;5052652;28;19962;-81
2022/02/07 12:36:18;;;;;;;;;;;17.30;93.00;;;;;;5034677;28;19999;-80
2022/02/07 12:38:44;;;;;;;;;;;19.10;92.10;;;;;;5053400;28;19951;-80
2022/02/07 12:41:14;;;;;;;;;;;18.70;88.30;;;;;;5052904;28;19909;-82
2022/02/07 12:43:43;;;;;;;;;;;18.50;90.60;;;;;;5052882;28;19908;-80
2022/02/07 12:46:11;;;;;;;;;;;19.30;86.60;;;;;;5052750;28;19908;-79
2022/02/07 12:48:41;;;;;;;;;;;19.20;88.50;;;;;;5052957;28;20000;-80
2022/02/07 12:51:06;;;;;;;;;;;19.60;87.00;;;;;;5056417;28;20280;-81
2022/02/07 12:53:32;;;;;;;;;;;19.40;86.80;;;;;;5056247;28;19909;-80
2022/02/07 12:55:59;;;;;;;;;;;19.30;87.60;;;;;;5056329;28;19909;-81
2022/02/07 12:58:32;;;;;;;;;;;18.30;86.00;;;;;;5056198;28;19913;-81
2022/02/07 13:00:58;;;;;;;;;;;19.40;87.30;;;;;;5056184;28;19909;-80
2022/02/07 13:03:23;;;;;;;;;;;18.00;88.30;;;;;;5056449;28;20319;-81
2022/02/07 13:05:49;;;;;;;;;;;17.50;90.70;;;;;;5056139;28;19909;-80
2022/02/07 13:08:16;;;;;;;;;;;17.80;89.70;;;;;;5056096;28;19909;-81
2022/02/07 13:10:42;;;;;;;;;;;16.80;90.60;;;;;;5038063;28;20266;-80
2022/02/07 13:13:27;;;;;;;;;;;17.10;91.40;;;;;;5056206;28;19909;-79
2022/02/07 13:15:53;;;;;;;;;;;17.20;90.90;;;;;;5034382;28;19960;-80
2022/02/07 13:18:20;;;;;;;;;;;17.60;91.00;;;;;;5035975;28;20011;-79
2022/02/07 13:20:46;;;;;;;;;;;17.40;90.50;;;;;;5035968;28;19909;-80
2022/02/07 13:23:17;;;;;;;;;;;17.50;90.70;;;;;;5036024;28;19913;-80
2022/02/07 13:25:46;;;;;;;;;;;17.60;90.60;;;;;;5035982;28;19975;-80
2022/02/07 13:28:12;;;;;;;;;;;17.60;90.80;;;;;;5035835;28;20335;-80
2022/02/07 13:30:39;;;;;;;;;;;17.60;90.20;;;;;;5035749;28;20378;-79
2022/02/07 13:33:04;;;;;;;;;;;17.90;90.40;;;;;;5036010;28;19953;-79
2022/02/07 13:35:35;;;;;;;;;;;17.80;88.00;;;;;;5035705;28;19952;-79
2022/02/07 13:38:05;;;;;;;;;;;17.20;88.30;;;;;;5035579;28;20000;-80
2022/02/07 13:40:38;;;;;;;;;;;17.30;88.90;;;;;;5035585;28;20324;-80
2022/02/07 13:43:03;;;;;;;;;;;17.90;89.60;;;;;;5035650;28;20326;-79
2022/02/07 13:45:31;;;;;;;;;;;19.20;87.80;;;;;;5035515;28;19909;-81
2022/02/07 13:47:58;;;;;;;;;;;19.60;85.60;;;;;;5035425;28;20408;-81
2022/02/07 13:50:30;;;;;;;;;;;20.50;82.70;;;;;;5035446;28;19909;-80
2022/02/07 13:52:57;;;;;;;;;;;22.80;81.40;;;;;;5035398;28;19964;-80
2022/02/07 13:55:24;;;;;;;;;;;23.10;76.90;;;;;;5035313;28;19909;-81
2022/02/07 13:57:51;;;;;;;;;;;23.40;73.20;;;;;;5035401;28;20369;-80
2022/02/07 14:00:18;;;;;;;;;;;23.20;72.30;;;;;;5035057;28;20370;-79
2022/02/07 14:02:44;;;;;;;;;;;23.00;71.70;;;;;;5033434;28;19909;-78
2022/02/07 14:05:10;;;;;;;;;;;22.60;72.40;;;;;;5035186;28;20270;-77
2022/02/07 14:07:49;;;;;;;;;;;23.60;70.80;;;;;;5034994;28;19915;-79
2022/02/07 14:10:15;;;;;;;;;;;23.80;68.30;;;;;;5034983;28;19916;-77
2022/02/07 14:12:41;;;;;;;;;;;22.90;68.50;;;;;;5034965;28;19932;-78
2022/02/07 14:15:07;;;;;;;;;;;23.50;70.00;;;;;;5034923;28;20262;-77
2022/02/07 14:17:32;;;;;;;;;;;23.50;68.80;;;;;;5052927;28;19921;-78
2022/02/07 14:20:00;;;;;;;;;;;23.90;67.90;;;;;;5036769;28;19915;-79
2022/02/07 14:22:28;;;;;;;;;;;24.50;68.30;;;;;;5054681;28;20392;-78
2022/02/07 14:24:53;;;;;;;;;;;25.40;66.50;;;;;;5054646;28;19999;-79
2022/02/07 14:27:19;;;;;;;;;;;25.10;65.10;;;;;;5054616;28;19986;-77
2022/02/07 14:29:44;;;;;;;;;;;25.80;65.10;;;;;;5054597;28;19909;-77
2022/02/07 14:32:10;;;;;;;;;;;24.90;63.40;;;;;;5054893;28;19931;-77
2022/02/07 14:34:35;;;;;;;;;;;23.50;64.90;;;;;;5054471;28;19913;-78
2022/02/07 14:37:07;;;;;;;;;;;23.40;66.40;;;;;;5054390;28;19916;-78
2022/02/07 14:39:36;;;;;;;;;;;22.60;66.10;;;;;;5054420;28;19931;-77
2022/02/07 14:42:04;;;;;;;;;;;22.70;68.20;;;;;;5054691;28;19931;-77
2022/02/07 14:44:32;;;;;;;;;;;21.80;68.20;;;;;;5054251;28;20298;-77
2022/02/07 14:47:10;;;;;;;;;;;20.40;71.40;;;;;;5054270;28;19963;-78
2022/02/07 14:49:36;;;;;;;;;;;19.00;75.20;;;;;;5036014;28;19908;-78
2022/02/07 14:52:03;;;;;;;;;;;18.50;78.30;;;;;;5054101;28;19913;-77
2022/02/07 14:54:29;;;;;;;;;;;19.00;77.40;;;;;;5036150;28;20381;-77
2022/02/07 14:56:55;;;;;;;;;;;19.50;76.80;;;;;;5036087;28;19939;-77
2022/02/07 14:59:23;;;;;;;;;;;22.20;72.10;;;;;;5054024;28;19909;-77
2022/02/07 15:01:52;;;;;;;;;;;23.20;68.30;;;;;;5035927;28;19954;-78
2022/02/07 15:04:19;;;;;;;;;;;24.00;67.30;;;;;;5036082;28;19909;-78
2022/02/07 15:06:44;;;;;;;;;;;24.10;64.10;;;;;;5053929;28;19959;-78
2022/02/07 15:09:10;;;;;;;;;;;23.70;65.60;;;;;;5053806;28;19913;-77
2022/02/07 15:11:36;;;;;;;;;;;25.80;65.70;;;;;;5053977;28;19909;-76
2022/02/07 15:14:01;;;;;;;;;;;24.60;63.30;;;;;;5052792;28;19913;-77
2022/02/07 15:16:27;;;;;;;;;;;25.50;64.00;;;;;;5053410;28;19927;-77
2022/02/07 15:18:52;;;;;;;;;;;25.80;63.70;;;;;;5053703;28;19916;-79
2022/02/07 15:21:18;;;;;;;;;;;25.00;62.30;;;;;;5054045;28;19908;-77
2022/02/07 15:23:43;;;;;;;;;;;24.90;64.20;;;;;;5053954;28;19908;-76
2022/02/07 15:26:09;;;;;;;;;;;23.00;63.80;;;;;;5053643;28;19952;-78
2022/02/07 15:28:35;;;;;;;;;;;22.70;67.30;;;;;;5035685;28;20428;-78
2022/02/07 15:31:01;;;;;;;;;;;21.50;68.40;;;;;;5053530;28;19909;-77
2022/02/07 15:33:34;;;;;;;;;;;21.80;70.70;;;;;;5053800;28;20365;-77
2022/02/07 15:36:01;;;;;;;;;;;24.00;66.40;;;;;;5035340;28;19916;-77
2022/02/07 15:38:27;;;;;;;;;;;23.30;66.10;;;;;;5053329;28;19913;-77
2022/02/07 15:40:53;;;;;;;;;;;24.30;64.80;;;;;;5053466;28;19971;-76
2022/02/07 15:43:19;;;;;;;;;;;24.90;63.80;;;;;;5053427;28;19996;-77
2022/02/07 15:45:46;;;;;;;;;;;24.50;63.40;;;;;;5053393;28;19951;-77
2022/02/07 15:48:12;;;;;;;;;;;23.60;65.30;;;;;;5053313;28;19913;-77
2022/02/07 15:50:38;;;;;;;;;;;20.90;69.80;;;;;;5035461;28;19999;-76
2022/02/07 15:53:05;;;;;;;;;;;20.00;75.00;;;;;;5053288;28;19912;-77
2022/02/07 15:55:31;;;;;;;;;;;19.30;77.60;;;;;;5053292;28;19909;-76
2022/02/07 15:57:56;;;;;;;;;;;19.80;78.30;;;;;;5053587;28;19920;-76
2022/02/07 16:00:22;;;;;;;;;;;20.10;75.70;;;;;;5053127;28;19913;-77
2022/02/07 16:02:50;;;;;;;;;;;18.60;78.80;;;;;;5053283;28;19909;-76
2022/02/07 16:05:16;;;;;;;;;;;18.20;80.90;;;;;;5053186;28;19908;-77
2022/02/07 16:07:42;;;;;;;;;;;17.80;83.00;;;;;;5053169;28;20444;-81
2022/02/07 16:10:07;;;;;;;;;;;17.70;84.40;;;;;;5053107;28;19943;-80
2022/02/07 16:12:33;;;;;;;;;;;17.20;84.80;;;;;;5035238;28;19935;-80
2022/02/07 16:14:59;;;;;;;;;;;17.60;86.60;;;;;;5053129;28;19909;-80
2022/02/07 16:17:25;;;;;;;;;;;19.40;83.10;;;;;;5052567;28;19975;-79
2022/02/07 16:19:50;;;;;;;;;;;20.60;78.60;;;;;;5053188;28;19909;-79
2022/02/07 16:22:16;;;;;;;;;;;21.00;77.20;;;;;;5053092;28;20011;-79
2022/02/07 16:24:45;;;;;;;;;;;21.30;76.60;;;;;;5054620;28;20392;-79
2022/02/07 16:27:12;;;;;;;;;;;21.10;76.90;;;;;;5039043;28;19959;-79
2022/02/07 16:29:38;;;;;;;;;;;20.50;77.20;;;;;;5056822;28;19909;-80
2022/02/07 16:32:04;;;;;;;;;;;20.70;77.10;;;;;;5056905;28;20392;-80
2022/02/07 16:34:29;;;;;;;;;;;19.90;77.30;;;;;;5056793;28;20009;-79
2022/02/07 16:36:55;;;;;;;;;;;19.80;79.00;;;;;;5056932;28;20272;-80
2022/02/07 16:39:20;;;;;;;;;;;18.70;81.70;;;;;;5038835;28;19923;-80
2022/02/07 16:41:47;;;;;;;;;;;18.50;83.00;;;;;;5056648;28;20365;-79
2022/02/07 16:44:13;;;;;;;;;;;18.50;83.50;;;;;;5056626;28;19941;-79
2022/02/07 16:46:50;;;;;;;;;;;17.60;85.30;;;;;;5056491;28;19909;-80
2022/02/07 16:49:21;;;;;;;;;;;17.30;88.70;;;;;;5056599;28;19943;-79